Time;durP1;ratioP1;P1;durP2;ratioP2;P2;SDS_P1;SDS_P2;PMS_P1;PMS_P2;Temp;Humidity;BMP_temperature;BMP_pressure;BME280_temperature;BME280_humidity;BME280_pressure;Samples;Min_cycle;Max_cycle;Signal;HPM_P1;HPM_P2
2021/11/02 00:00:34;;;;;;;59.88;42.00;;;;;;;6.23;77.28;99519.20;1713198;82;21561;-57
2021/11/02 00:03:01;;;;;;;60.50;39.65;;;;;;;6.26;77.25;99513.05;1706566;81;21515;-57
2021/11/02 00:05:28;;;;;;;53.58;39.27;;;;;;;6.33;77.21;99514.58;1712527;82;21479;-58
2021/11/02 00:07:57;;;;;;;53.00;39.10;;;;;;;6.34;77.12;99512.39;1716468;83;21514;-57
2021/11/02 00:10:24;;;;;;;54.00;41.25;;;;;;;6.29;77.17;99506.00;1709723;81;21645;-57
2021/11/02 00:12:51;;;;;;;54.10;41.60;;;;;;;6.25;77.24;99500.43;1709762;81;21677;-57
2021/11/02 00:15:22;;;;;;;56.30;42.67;;;;;;;6.23;77.28;99499.19;1705665;82;21921;-57
2021/11/02 00:17:52;;;;;;;51.48;40.75;;;;;;;6.21;77.33;99495.73;1711166;82;21495;-57
2021/11/02 00:20:19;;;;;;;56.33;39.88;;;;;;;6.26;77.38;99494.78;1707376;83;21558;-57
2021/11/02 00:22:56;;;;;;;;;;;;;;;6.37;77.27;99495.34;1712472;82;21570;-57
2021/11/02 00:25:24;;;;;;;55.43;42.20;;;;;;;6.37;77.14;99491.42;1702907;81;20433;-57
2021/11/02 00:27:52;;;;;;;59.03;43.25;;;;;;;6.31;77.19;99496.80;1708369;83;21921;-57
2021/11/02 00:30:20;;;;;;;53.53;41.50;;;;;;;6.30;77.18;99495.95;1697256;81;21573;-57
2021/11/02 00:32:51;;;;;;;52.25;38.80;;;;;;;6.29;77.12;99495.98;1708571;82;21045;-57
2021/11/02 00:35:19;;;;;;;50.03;39.90;;;;;;;6.30;77.24;99489.41;1698616;82;21554;-57
2021/11/02 00:37:48;;;;;;;50.67;40.00;;;;;;;6.44;77.07;99491.63;1713069;83;21052;-57
2021/11/02 00:40:16;;;;;;;52.03;40.90;;;;;;;6.47;76.93;99484.17;1705379;81;21571;-57
2021/11/02 00:45:26;;;;;;;51.77;40.98;;;;;;;6.38;77.00;99495.73;1707237;82;21554;-57
2021/11/02 00:47:46;;;;;;;54.93;39.63;;;;;;;6.35;76.97;99491.45;1701890;82;21815;-56
2021/11/02 00:50:13;;;;;;;64.77;39.00;;;;;;;6.41;77.07;99496.50;1708593;81;21583;-57
2021/11/02 00:52:40;;;;;;;53.70;40.40;;;;;;;6.51;76.90;99486.64;1703992;82;21411;-57
2021/11/02 00:55:08;;;;;;;57.25;41.55;;;;;;;6.54;76.87;99490.48;1698974;81;21561;-57
2021/11/02 00:57:35;;;;;;;52.85;40.70;;;;;;;6.54;76.96;99480.50;1712946;83;24425;-57
2021/11/02 01:00:04;;;;;;;53.23;40.48;;;;;;;6.51;76.91;99477.96;1705147;82;21448;-57
2021/11/02 01:02:31;;;;;;;53.23;40.85;;;;;;;6.47;77.12;99486.79;1699502;82;21435;-57
2021/11/02 01:04:58;;;;;;;49.50;39.17;;;;;;;6.46;77.33;99485.06;1712012;81;21515;-57
2021/11/02 01:07:24;;;;;;;52.95;40.35;;;;;;;6.54;77.49;99477.42;1707524;82;22238;-57
2021/11/02 01:09:52;;;;;;;59.03;40.83;;;;;;;6.54;77.54;99487.03;1703906;82;21559;-57
2021/11/02 01:12:19;;;;;;;59.18;42.05;;;;;;;6.48;77.71;99484.14;1708562;83;22062;-58
2021/11/02 01:14:46;;;;;;;60.58;42.58;;;;;;;6.44;77.91;99470.73;1711550;82;21594;-58
2021/11/02 01:17:13;;;;;;;53.20;39.65;;;;;;;6.40;77.85;99470.00;1716917;82;21567;-57
2021/11/02 01:19:40;;;;;;;53.50;39.83;;;;;;;6.41;78.04;99467.77;1712455;82;21589;-57
2021/11/02 01:22:06;;;;;;;54.53;39.60;;;;;;;6.51;78.08;99461.83;1711035;83;21466;-58
2021/11/02 01:24:34;;;;;;;54.67;40.75;;;;;;;6.53;78.05;99457.88;1706838;81;21843;-57
2021/11/02 01:27:01;;;;;;;57.97;41.47;;;;;;;6.49;78.14;99455.80;1704185;82;21592;-57
2021/11/02 01:29:29;;;;;;;59.05;42.85;;;;;;;6.42;78.16;99459.05;1716691;83;21519;-57
2021/11/02 01:31:56;;;;;;;53.13;39.78;;;;;;;6.37;78.28;99457.47;1714033;82;21643;-57
2021/11/02 01:34:23;;;;;;;51.77;39.75;;;;;;;6.36;78.26;99460.52;1711729;82;21526;-57
2021/11/02 01:36:53;;;;;;;52.65;41.92;;;;;;;6.45;78.33;99455.95;1714367;82;21911;-57
2021/11/02 01:39:21;;;;;;;54.10;41.08;;;;;;;6.43;78.08;99445.08;1711508;83;21011;-57
2021/11/02 01:41:50;;;;;;;52.60;42.50;;;;;;;6.26;78.54;99435.58;1690840;83;21522;-58
2021/11/02 01:44:17;;;;;;;56.23;41.77;;;;;;;6.20;78.97;99444.44;1709048;81;27138;-57
2021/11/02 01:46:44;;;;;;;56.63;40.70;;;;;;;6.18;79.00;99445.39;1713717;82;21491;-57
2021/11/02 01:49:12;;;;;;;52.10;38.92;;;;;;;6.19;79.07;99438.80;1714025;81;22049;-58
2021/11/02 01:51:40;;;;;;;50.12;38.92;;;;;;;6.29;79.05;99435.92;1714078;83;21730;-57
2021/11/02 01:54:07;;;;;;;54.03;40.12;;;;;;;6.29;79.17;99444.64;1714490;82;21620;-58
2021/11/02 01:56:35;;;;;;;53.68;42.30;;;;;;;6.26;79.17;99441.25;1703795;83;26792;-57
2021/11/02 01:59:04;;;;;;;56.10;42.20;;;;;;;6.24;79.37;99439.98;1712880;82;21515;-57
2021/11/02 02:01:54;;;;;;;53.65;39.23;;;;;;;6.25;79.35;99449.52;1718719;82;22135;-57
2021/11/02 02:04:45;;;;;;;48.28;36.63;;;;;;;6.29;79.45;99443.33;1713951;81;21060;-57
2021/11/02 02:07:54;;;;;;;53.00;40.73;;;;;;;6.42;79.19;99438.16;1710568;82;21491;-57
2021/11/02 02:10:42;;;;;;;53.25;40.03;;;;;;;6.42;79.19;99432.94;1704127;81;21089;-57
2021/11/02 02:13:54;;;;;;;56.25;42.38;;;;;;;6.36;79.26;99425.72;1707833;82;21444;-57
2021/11/02 02:16:40;;;;;;;51.53;39.08;;;;;;;6.29;79.20;99422.44;1708125;81;21589;-57
2021/11/02 02:19:49;;;;;;;55.78;39.90;;;;;;;6.34;79.35;99425.75;1700641;82;21000;-57
2021/11/02 02:22:51;;;;;;;52.50;40.85;;;;;;;6.42;79.19;99415.08;1715811;82;21526;-57
2021/11/02 02:25:32;;;;;;;53.63;40.45;;;;;;;6.36;79.25;99414.81;1712834;83;21527;-57
2021/11/02 02:28:33;;;;;;;50.85;40.67;;;;;;;6.29;79.34;99415.03;1702348;82;21497;-57
2021/11/02 02:31:06;;;;;;;49.93;38.33;;;;;;;6.26;79.43;99408.62;1710975;82;21813;-57
2021/11/02 02:33:47;;;;;;;51.68;39.45;;;;;;;6.31;79.65;99407.59;1706205;82;21563;-57
2021/11/02 02:36:16;;;;;;;51.85;39.35;;;;;;;6.41;79.46;99406.86;1708872;82;21452;-57
2021/11/02 02:39:00;;;;;;;56.58;40.73;;;;;;;6.38;79.52;99399.10;1709371;82;21562;-57
2021/11/02 02:41:28;;;;;;;52.95;40.17;;;;;;;6.29;79.48;99399.37;1708765;82;21490;-59
2021/11/02 02:43:55;;;;;;;56.42;40.35;;;;;;;6.21;79.72;99391.77;1686206;83;22099;-57
2021/11/02 02:46:21;;;;;;;54.18;39.83;;;;;;;6.32;80.07;99392.77;1710180;82;21524;-57
2021/11/02 02:48:48;;;;;;;49.15;37.80;;;;;;;6.32;80.07;99392.77;1688381;83;21606;-58
2021/11/02 02:51:16;;;;;;;56.05;41.08;;;;;;;6.30;80.13;99390.65;1698105;82;21495;-59
2021/11/02 02:53:45;;;;;;;57.08;41.60;;;;;;;6.24;80.15;99388.62;1709553;82;21553;-58
2021/11/02 02:56:13;;;;;;;50.60;39.70;;;;;;;6.23;80.39;99391.27;1707771;83;21742;-58
2021/11/02 02:58:45;;;;;;;53.92;40.05;;;;;;;6.21;80.40;99386.08;1699931;82;21599;-57
2021/11/02 03:01:14;;;;;;;47.90;36.68;;;;;;;6.28;80.62;99387.23;1709738;82;21582;-57
2021/11/02 03:03:57;;;;;;;48.25;38.38;;;;;;;6.43;80.51;99385.01;1709447;82;21432;-57
2021/11/02 03:06:30;;;;;;;60.70;40.67;;;;;;;6.47;80.35;99384.47;1710171;82;21609;-57
2021/11/02 03:08:58;;;;;;;54.10;40.60;;;;;;;6.45;80.33;99388.88;1711766;82;21709;-57
2021/11/02 03:11:28;;;;;;;51.37;39.40;;;;;;;6.43;80.27;99395.91;1705941;83;21574;-57
2021/11/02 03:13:58;;;;;;;48.98;39.53;;;;;;;6.41;80.23;99393.34;1698387;82;21513;-57
2021/11/02 03:16:54;;;;;;;45.52;36.98;;;;;;;6.45;80.10;99395.41;1703546;82;26984;-57
2021/11/02 03:49:34;;;;;;;49.50;38.20;;;;;;;6.57;79.77;99357.61;1695062;83;21828;-58
2021/11/02 03:57:25;;;;;;;52.58;39.27;;;;;;;6.49;80.00;99353.08;1694642;82;20970;-57
2021/11/02 04:00:16;;;;;;;46.85;36.93;;;;;;;6.51;80.12;99348.66;1700945;82;21614;-57
2021/11/02 05:49:19;;;;;;;47.65;35.88;;;;;;;6.66;82.07;99298.55;1694567;82;21010;-54
2021/11/02 05:59:47;;;;;;;50.35;36.08;;;;;;;6.65;82.31;99304.69;1689738;83;21519;-54
2021/11/02 06:05:12;;;;;;;51.85;36.75;;;;;;;6.82;82.32;99307.60;1699161;83;21791;-56
2021/11/02 06:29:38;;;;;;;51.15;36.48;;;;;;;6.89;81.73;99312.16;1709962;82;21597;-55
2021/11/02 06:32:12;;;;;;;47.98;35.98;;;;;;;6.99;81.60;99310.12;1713995;81;21798;-56
2021/11/02 06:34:57;;;;;;;50.80;37.00;;;;;;;6.98;81.61;99301.40;1703617;82;21423;-56
2021/11/02 06:37:43;;;;;;;51.45;37.90;;;;;;;6.91;81.74;99297.73;1700422;82;21491;-55
2021/11/02 06:45:34;;;;;;;49.20;36.30;;;;;;;7.03;81.89;99303.88;1710966;83;22100;-56
2021/11/02 06:55:58;;;;;;;53.75;36.63;;;;;;;7.01;82.03;99313.07;1712174;83;21561;-55
2021/11/02 07:19:58;;;;;;;47.60;32.80;;;;;;;7.06;82.18;99298.52;1713316;82;21934;-55
2021/11/02 08:46:34;;;;;;;25.35;20.82;;;;;;;7.48;83.14;99229.06;1663267;85;21602;-56
2021/11/02 08:48:55;;;;;;;24.15;20.15;;;;;;;7.45;82.97;99225.28;1654301;84;21876;-56
2021/11/02 08:51:20;;;;;;;23.77;19.92;;;;;;;7.37;82.88;99226.87;1662405;84;21411;-54
2021/11/02 08:53:46;;;;;;;20.17;17.98;;;;;;;7.34;83.02;99231.73;1663367;84;21609;-55
2021/11/02 08:56:17;;;;;;;21.20;17.70;;;;;;;7.39;83.02;99224.58;1663006;85;21503;-55
2021/11/02 08:58:45;;;;;;;20.90;17.98;;;;;;;7.44;83.05;99224.86;1664396;84;21796;-55
2021/11/02 09:01:13;;;;;;;20.90;18.50;;;;;;;7.40;83.05;99222.81;1662874;84;22022;-56
2021/11/02 09:03:49;;;;;;;21.57;18.27;;;;;;;7.35;83.12;99213.84;1662197;84;21608;-55
2021/11/02 09:06:17;;;;;;;18.85;16.85;;;;;;;7.36;83.21;99202.91;1662034;84;21560;-57
2021/11/02 09:08:48;;;;;;;18.77;16.67;;;;;;;7.47;83.37;99200.76;1663339;84;21664;-55
2021/11/02 09:11:16;;;;;;;19.40;17.37;;;;;;;7.53;83.29;99198.37;1662340;84;21040;-56
2021/11/02 09:13:47;;;;;;;18.65;16.80;;;;;;;7.51;83.08;99187.11;1663308;84;21988;-56
2021/11/02 09:16:15;;;;;;;17.25;15.45;;;;;;;7.43;83.05;99185.25;1642385;84;21430;-56
2021/11/02 09:18:45;;;;;;;17.12;15.32;;;;;;;7.45;83.25;99182.96;1662676;85;21561;-55
2021/11/02 09:21:12;;;;;;;16.70;14.93;;;;;;;7.52;83.35;99180.52;1662265;84;21558;-55
2021/11/02 09:23:42;;;;;;;18.25;16.12;;;;;;;7.57;83.42;99169.44;1662889;84;21057;-56
2021/11/02 09:26:09;;;;;;;16.85;15.15;;;;;;;7.58;83.65;99169.81;1663648;84;21761;-57
2021/11/02 09:28:35;;;;;;;19.27;16.25;;;;;;;7.60;83.61;99160.14;1663247;84;21557;-56
2021/11/02 09:32:57;;;;;;;16.93;15.15;;;;;;;7.80;83.49;99151.53;1776889;78;23161;-56
2021/11/02 09:35:30;;;;;;;15.93;14.30;;;;;;;7.75;83.25;99150.00;1731934;80;20980;-56
2021/11/02 09:38:23;;;;;;;16.00;14.33;;;;;;;7.73;83.45;99147.91;1739621;80;21807;-56
2021/11/02 09:41:31;;;;;;;14.55;12.78;;;;;;;7.74;83.28;99147.85;1740643;80;22090;-55
2021/11/02 09:44:16;;;;;;;12.85;11.65;;;;;;;7.84;83.32;99140.48;1737833;80;21479;-56
2021/11/02 09:47:35;;;;;;;14.90;13.35;;;;;;;7.94;82.70;99139.66;1735277;81;21053;-56
2021/11/02 09:50:17;;;;;;;13.50;12.13;;;;;;;7.86;82.58;99136.50;1733720;80;20982;-57
2021/11/02 09:53:27;;;;;;;12.43;11.08;;;;;;;7.77;82.58;99123.31;1726854;80;22113;-56
2021/11/02 09:56:19;;;;;;;11.00;9.98;;;;;;;7.75;83.05;99127.76;1736588;80;21626;-56
2021/11/02 09:59:35;;;;;;;12.43;11.12;;;;;;;7.84;82.78;99126.55;1737677;80;21029;-57
2021/11/02 10:02:31;;;;;;;16.23;12.55;;;;;;;7.81;83.29;99119.66;1743931;80;21508;-54
2021/11/02 10:05:41;;;;;;;13.03;11.73;;;;;;;7.79;83.37;99117.09;1736490;80;21550;-56
2021/11/02 10:08:28;;;;;;;14.03;12.70;;;;;;;7.89;83.51;99110.19;1722635;80;22081;-56
2021/11/02 10:11:26;;;;;;;13.05;11.85;;;;;;;7.97;83.34;99101.12;1738052;80;20995;-56
2021/11/02 10:14:19;;;;;;;14.38;12.88;;;;;;;7.96;83.19;99103.33;1731341;80;21491;-55
2021/11/02 10:17:01;;;;;;;13.08;11.88;;;;;;;7.92;83.37;99091.75;1726709;80;21562;-55
2021/11/02 10:20:08;;;;;;;11.95;10.88;;;;;;;7.95;83.64;99093.79;1738766;80;21569;-57
2021/11/02 10:23:12;;;;;;;13.03;11.87;;;;;;;8.06;83.37;99092.48;1741662;80;21419;-57
2021/11/02 10:26:02;;;;;;;12.75;11.55;;;;;;;7.99;83.24;99089.28;1672057;83;21916;-55
2021/11/02 10:29:07;;;;;;;13.32;11.90;;;;;;;7.90;83.31;99080.49;1671580;83;21144;-55
2021/11/02 10:32:01;;;;;;;12.63;11.33;;;;;;;7.92;83.49;99083.43;1620925;84;21057;-57
2021/11/02 10:34:52;;;;;;;12.20;11.00;;;;;;;8.04;83.41;99064.20;1719560;81;21569;-57
2021/11/02 10:37:44;;;;;;;12.18;10.98;;;;;;;7.98;83.35;99060.08;1723666;81;22123;-55
2021/11/02 10:40:34;;;;;;;10.70;9.58;;;;;;;7.95;83.49;99057.61;1727371;81;21558;-54
2021/11/02 10:43:51;;;;;;;9.93;9.03;;;;;;;7.98;83.42;99055.68;1723660;81;21500;-56
2021/11/02 10:46:18;;;;;;;9.73;8.83;;;;;;;8.06;83.32;99051.90;1723237;82;21636;-55
2021/11/02 10:48:49;;;;;;;11.93;10.78;;;;;;;8.05;83.40;99046.28;1700597;82;21445;-55
2021/11/02 10:51:32;;;;;;;10.58;9.58;;;;;;;7.97;83.41;99040.91;1730589;81;22097;-55
2021/11/02 10:54:27;;;;;;;9.90;8.95;;;;;;;7.98;83.73;99035.20;1717126;82;21483;-55
2021/11/02 10:57:14;;;;;;;12.15;9.50;;;;;;;8.10;83.76;99032.52;1665065;84;21461;-55
2021/11/02 10:59:46;;;;;;;;;;;;;;;8.10;83.84;99023.36;1681618;83;21503;-57
2021/11/02 11:02:29;;;;;;;10.53;9.53;;;;;;;8.06;84.36;99021.35;1676638;83;20471;-57
2021/11/02 11:05:01;;;;;;;9.58;8.78;;;;;;;8.06;84.38;99019.17;1664532;84;21803;-56
2021/11/02 11:07:31;;;;;;;8.85;8.03;;;;;;;8.11;83.85;99015.91;1678270;83;21097;-56
2021/11/02 11:09:58;;;;;;;8.85;8.15;;;;;;;8.11;83.95;99009.36;1651747;84;21639;-56
2021/11/02 11:12:26;;;;;;;8.43;7.78;;;;;;;8.11;83.52;99010.67;1673912;83;21621;-56
2021/11/02 11:14:53;;;;;;;9.48;8.68;;;;;;;8.03;84.08;99010.16;1673593;83;21618;-57
2021/11/02 11:17:28;;;;;;;9.08;8.28;;;;;;;8.02;84.56;99000.12;1676559;83;21573;-57
2021/11/02 11:20:11;;;;;;;7.95;7.15;;;;;;;8.07;84.50;99002.09;1673948;83;21164;-56
2021/11/02 11:22:41;;;;;;;8.20;7.40;;;;;;;8.22;84.59;98997.13;1674439;83;21582;-57
2021/11/02 11:25:45;;;;;;;8.63;7.83;;;;;;;8.32;84.47;98996.63;1676149;83;21558;-58
2021/11/02 11:28:17;;;;;;;11.08;8.40;;;;;;;8.31;84.50;98987.09;1675148;83;21490;-55
2021/11/02 11:30:43;;;;;;;8.68;7.72;;;;;;;8.32;84.34;98982.23;1677263;84;21448;-54
2021/11/02 11:33:15;;;;;;;7.97;7.17;;;;;;;8.35;84.00;98987.81;1673992;83;21076;-55
2021/11/02 11:35:42;;;;;;;8.05;7.35;;;;;;;8.44;83.84;98981.33;1677184;83;21043;-58
2021/11/02 11:38:12;;;;;;;8.38;7.58;;;;;;;8.46;83.43;98980.83;1681239;83;21554;-55
2021/11/02 11:40:42;;;;;;;8.00;7.30;;;;;;;8.39;83.58;98973.65;1719742;81;21025;-55
2021/11/02 11:43:11;;;;;;;8.55;7.70;;;;;;;8.36;83.56;98973.77;1723966;81;21811;-59
2021/11/02 11:45:46;;;;;;;7.78;7.08;;;;;;;8.38;83.71;98970.63;1721634;82;21432;-56
2021/11/02 11:48:22;;;;;;;7.78;7.08;;;;;;;8.52;83.64;98972.21;1721295;80;21495;-57
2021/11/02 11:50:49;;;;;;;7.50;6.80;;;;;;;8.52;83.35;98970.91;1727971;81;21543;-57
2021/11/02 11:53:18;;;;;;;8.38;7.47;;;;;;;8.46;83.36;98962.02;1728942;80;21579;-59
2021/11/02 11:55:50;;;;;;;7.80;7.20;;;;;;;8.42;83.28;98964.83;1718571;81;21769;-56
2021/11/02 11:58:24;;;;;;;7.10;6.50;;;;;;;8.43;83.33;98963.45;1727133;80;21465;-56
2021/11/02 12:01:12;;;;;;;7.40;6.72;;;;;;;8.52;83.31;98963.52;1720885;81;21508;-56
2021/11/02 12:03:51;;;;;;;8.80;8.05;;;;;;;8.50;83.09;98957.02;1712079;80;21611;-57
2021/11/02 12:06:50;;;;;;;9.90;8.10;;;;;;;8.46;82.87;98959.40;1609164;87;21627;-57
2021/11/02 12:09:20;;;;;;;8.45;7.67;;;;;;;8.37;83.09;98955.38;1631492;85;22297;-57
2021/11/02 12:11:48;;;;;;;7.72;7.03;;;;;;;8.35;83.37;98952.45;1647777;85;21486;-57
2021/11/02 12:14:19;;;;;;;;;;;;;;;8.39;83.36;98962.70;1643590;85;21624;-58
2021/11/02 12:16:46;;;;;;;8.50;7.72;;;;;;;8.35;83.56;98965.55;1637393;85;20621;-57
2021/11/02 12:19:39;;;;;;;9.10;8.30;;;;;;;8.27;83.68;98967.20;1641035;85;22293;-59
2021/11/02 12:22:17;;;;;;;10.32;9.33;;;;;;;8.22;83.68;98963.92;1641686;85;21780;-56
2021/11/02 12:24:45;;;;;;;9.48;8.30;;;;;;;8.19;83.86;98971.47;1643984;85;21613;-56
2021/11/02 12:27:14;;;;;;;9.68;8.65;;;;;;;8.24;83.90;98967.79;1643438;85;21075;-56
2021/11/02 12:29:44;;;;;;;9.65;8.75;;;;;;;8.23;84.09;98963.45;1643233;85;21049;-55
2021/11/02 12:32:14;;;;;;;10.23;9.33;;;;;;;8.19;84.07;98958.38;1662867;84;21477;-55
2021/11/02 12:34:49;;;;;;;10.43;9.43;;;;;;;8.14;84.20;98950.33;1664983;84;21718;-56
2021/11/02 12:37:18;;;;;;;11.08;9.93;;;;;;;8.22;84.22;98955.22;1672988;84;21057;-56
2021/11/02 12:39:45;;;;;;;11.38;10.30;;;;;;;8.24;84.32;98941.59;1666938;84;21120;-56
2021/11/02 12:42:12;;;;;;;10.40;9.38;;;;;;;8.21;84.46;98940.41;1643106;85;21587;-56
2021/11/02 12:44:40;;;;;;;9.90;8.83;;;;;;;8.17;84.67;98939.27;1641932;85;20993;-56
2021/11/02 12:47:17;;;;;;;10.18;9.18;;;;;;;8.23;84.69;98947.73;1669469;84;21603;-56
2021/11/02 12:49:57;;;;;;;10.13;9.18;;;;;;;8.34;84.55;98946.80;1666782;84;21542;-55
2021/11/02 12:52:27;;;;;;;10.32;9.23;;;;;;;8.34;84.41;98944.19;1667278;84;21647;-56
2021/11/02 12:55:11;;;;;;;10.23;9.33;;;;;;;8.31;84.54;98946.96;1643021;85;21616;-56
2021/11/02 12:57:40;;;;;;;9.75;8.85;;;;;;;8.26;84.61;98939.29;1669928;84;21506;-57
2021/11/02 13:00:13;;;;;;;8.95;8.08;;;;;;;8.31;84.44;98938.64;1666108;84;21805;-58
2021/11/02 13:02:55;;;;;;;9.08;8.28;;;;;;;8.39;84.45;98931.73;1675097;84;21498;-57
2021/11/02 13:05:24;;;;;;;10.88;9.48;;;;;;;8.41;84.28;98932.52;1647332;84;21606;-57
2021/11/02 13:08:11;;;;;;;9.03;8.23;;;;;;;8.39;84.16;98935.67;1667403;84;21457;-56
2021/11/02 13:10:40;;;;;;;7.80;7.10;;;;;;;8.30;84.28;98933.46;1664890;84;21491;-56
2021/11/02 13:13:18;;;;;;;8.78;7.97;;;;;;;8.34;84.44;98929.34;1639388;85;21889;-56
2021/11/02 13:15:53;;;;;;;9.63;8.30;;;;;;;8.43;84.33;98932.48;1613807;87;21569;-57
2021/11/02 13:18:32;;;;;;;8.50;7.70;;;;;;;8.41;84.07;98929.06;1633547;85;21682;-58
2021/11/02 13:21:26;;;;;;;8.30;7.50;;;;;;;8.33;84.18;98926.78;1636914;85;21530;-58
2021/11/02 13:24:13;;;;;;;7.35;6.65;;;;;;;8.30;84.42;98925.60;1625419;85;21548;-57
2021/11/02 13:26:46;;;;;;;8.20;7.50;;;;;;;8.38;84.53;98919.55;1637257;85;21510;-58
2021/11/02 13:29:22;;;;;;;7.62;6.92;;;;;;;8.41;84.57;98915.49;1639528;85;21586;-57
2021/11/02 13:31:51;;;;;;;7.65;6.97;;;;;;;8.41;84.50;98913.34;1637240;85;21636;-57
2021/11/02 13:34:21;;;;;;;7.03;6.37;;;;;;;8.38;84.54;98916.92;1635366;86;21495;-58
2021/11/02 13:36:48;;;;;;;6.70;6.10;;;;;;;8.42;84.37;98922.47;1632820;86;21549;-57
2021/11/02 13:39:16;;;;;;;7.50;6.80;;;;;;;8.52;84.26;98915.88;1604281;87;22209;-58
2021/11/02 13:41:50;;;;;;;7.00;6.42;;;;;;;8.53;84.18;98916.28;1637918;86;21439;-57
2021/11/02 13:44:18;;;;;;;7.28;6.60;;;;;;;8.47;84.19;98912.61;1639230;85;21594;-58
2021/11/02 13:46:54;;;;;;;6.37;5.87;;;;;;;8.44;84.41;98908.84;1634253;85;21562;-58
2021/11/02 13:49:21;;;;;;;6.72;6.22;;;;;;;8.47;84.29;98904.75;1613164;87;21402;-58
2021/11/02 13:51:50;;;;;;;6.28;5.67;;;;;;;8.53;84.27;98908.86;1633308;85;22112;-58
2021/11/02 13:54:18;;;;;;;6.97;6.37;;;;;;;8.52;84.20;98905.88;1643760;85;21574;-60
2021/11/02 13:56:46;;;;;;;;;;;;;;;8.45;84.36;98904.45;1669667;84;21470;-58
2021/11/02 13:59:13;;;;;;;6.97;6.28;;;;;;;8.41;84.43;98903.70;1670151;84;20176;-58
2021/11/02 14:01:55;;;;;;;8.10;7.30;;;;;;;8.45;84.50;98901.83;1666439;84;21549;-58
2021/11/02 14:04:31;;;;;;;7.60;6.55;;;;;;;8.55;84.39;98900.03;1631012;85;21530;-57
2021/11/02 14:07:13;;;;;;;9.65;7.70;;;;;;;8.56;84.23;98895.16;1637035;85;21562;-57
2021/11/02 14:09:48;;;;;;;9.20;7.00;;;;;;;8.54;84.20;98894.39;1640234;85;21565;-57
2021/11/02 14:12:26;;;;;;;7.05;6.35;;;;;;;8.49;84.30;98891.59;1640089;85;21023;-56
2021/11/02 14:15:16;;;;;;;7.33;6.62;;;;;;;8.53;84.30;98891.39;1663948;84;21633;-56
2021/11/02 14:18:10;;;;;;;7.80;7.10;;;;;;;8.62;84.19;98889.25;1668931;84;21759;-57
2021/11/02 14:20:37;;;;;;;8.38;7.65;;;;;;;8.57;84.11;98887.70;1664759;84;21604;-57
2021/11/02 14:23:08;;;;;;;8.73;7.83;;;;;;;8.54;84.05;98893.55;1667486;84;21609;-57
2021/11/02 14:25:39;;;;;;;7.05;6.45;;;;;;;8.52;84.00;98889.68;1667236;84;21498;-57
2021/11/02 14:28:08;;;;;;;6.85;6.30;;;;;;;8.61;84.02;98890.16;1640173;85;21553;-57
2021/11/02 14:30:42;;;;;;;7.67;6.97;;;;;;;8.62;83.99;98891.88;1638865;85;21616;-57
2021/11/02 14:33:17;;;;;;;8.33;7.47;;;;;;;8.62;84.11;98893.19;1638733;85;21609;-59
2021/11/02 14:35:54;;;;;;;7.17;6.47;;;;;;;8.57;84.08;98883.77;1589638;87;21646;-57
2021/11/02 14:38:28;;;;;;;7.12;6.53;;;;;;;8.66;83.97;98886.41;1642825;85;21486;-58
2021/11/02 14:40:57;;;;;;;8.08;7.22;;;;;;;8.77;83.65;98889.84;1661752;84;21513;-59
2021/11/02 14:43:29;;;;;;;8.58;7.78;;;;;;;8.75;83.52;98890.38;1667479;84;22125;-58
2021/11/02 14:46:04;;;;;;;8.38;7.58;;;;;;;8.69;83.63;98887.58;1676260;84;21028;-58
2021/11/02 14:48:37;;;;;;;8.03;7.25;;;;;;;8.65;83.74;98882.58;1635892;85;21617;-57
2021/11/02 14:51:07;;;;;;;7.78;7.08;;;;;;;8.68;83.70;98890.27;1667012;84;21548;-58
2021/11/02 14:53:35;;;;;;;8.23;7.42;;;;;;;8.73;83.49;98894.84;1668529;84;21546;-59
2021/11/02 14:56:23;;;;;;;8.63;7.78;;;;;;;8.72;83.58;98894.44;1669295;84;21799;-59
2021/11/02 14:58:54;;;;;;;9.00;7.70;;;;;;;8.67;83.70;98889.42;1674839;84;21514;-60
2021/11/02 15:01:35;;;;;;;7.72;7.03;;;;;;;8.58;83.89;98885.92;1670438;84;21427;-60
2021/11/02 15:04:10;;;;;;;8.08;7.37;;;;;;;8.64;83.87;98891.34;1667075;84;21656;-61
2021/11/02 15:06:41;;;;;;;10.93;8.65;;;;;;;8.72;83.70;98890.51;1669362;84;21523;-61
2021/11/02 15:09:13;;;;;;;9.40;8.50;;;;;;;8.72;83.79;98894.44;1668684;84;21874;-61
2021/11/02 15:11:40;;;;;;;11.28;8.35;;;;;;;8.68;83.85;98892.45;1664434;84;21416;-61
2021/11/02 15:14:19;;;;;;;9.10;8.28;;;;;;;8.63;83.83;98893.59;1660747;84;21537;-61
2021/11/02 15:16:48;;;;;;;10.40;8.48;;;;;;;8.68;83.93;98894.20;1663864;84;21577;-60
2021/11/02 15:19:16;;;;;;;9.80;8.90;;;;;;;8.73;83.72;98899.61;1639394;85;21988;-59
2021/11/02 15:22:01;;;;;;;10.75;9.60;;;;;;;8.69;83.78;98891.98;1640203;85;22056;-62
2021/11/02 15:24:40;;;;;;;10.90;9.10;;;;;;;8.61;84.00;98889.73;1611450;87;21600;-60
2021/11/02 15:27:11;;;;;;;10.30;9.28;;;;;;;8.56;84.11;98885.99;1666990;84;21049;-61
2021/11/02 15:29:51;;;;;;;9.45;8.58;;;;;;;8.61;84.08;98889.73;1673957;84;21582;-61
2021/11/02 15:32:23;;;;;;;10.40;9.33;;;;;;;8.69;83.98;98886.27;1671401;84;21052;-58
2021/11/02 15:34:58;;;;;;;10.95;9.85;;;;;;;8.68;84.00;98887.65;1664708;84;21834;-59
2021/11/02 15:37:34;;;;;;;10.08;8.98;;;;;;;8.60;84.14;98881.92;1656390;84;21501;-59
2021/11/02 15:40:12;;;;;;;10.45;9.45;;;;;;;8.55;84.45;98883.00;1669828;84;21089;-59
2021/11/02 15:42:45;;;;;;;11.30;10.20;;;;;;;8.63;84.41;98882.64;1656129;84;21559;-58
2021/11/02 15:45:23;;;;;;;10.40;9.38;;;;;;;8.70;84.32;98885.80;1667539;84;21081;-60
2021/11/02 15:47:52;;;;;;;11.60;10.40;;;;;;;8.68;84.40;98889.83;1673117;84;22083;-59
2021/11/02 15:50:22;;;;;;;11.38;10.03;;;;;;;8.67;84.43;98887.28;1675323;84;21542;-59
2021/11/02 15:52:49;;;;;;;10.28;9.28;;;;;;;8.68;84.46;98891.14;1669531;84;21565;-59
2021/11/02 15:55:22;;;;;;;10.10;9.20;;;;;;;8.77;84.38;98895.08;1667595;84;21569;-59
2021/11/02 15:57:55;;;;;;;11.38;9.88;;;;;;;8.85;84.11;98890.78;1660992;84;21733;-60
2021/11/02 16:00:28;;;;;;;11.78;10.58;;;;;;;8.84;84.06;98889.10;1671695;84;21556;-59
2021/11/02 16:02:55;;;;;;;11.38;10.20;;;;;;;8.81;84.00;98884.83;1665952;84;21424;-59
2021/11/02 16:05:26;;;;;;;10.30;9.30;;;;;;;8.80;83.93;98880.97;1665188;84;21546;-60
2021/11/02 16:07:54;;;;;;;10.68;9.78;;;;;;;8.85;83.89;98885.06;1673044;84;21487;-59
2021/11/02 16:10:32;;;;;;;12.70;10.70;;;;;;;8.91;83.82;98883.48;1678653;84;21511;-59
2021/11/02 16:13:06;;;;;;;11.43;10.32;;;;;;;8.86;83.72;98883.32;1669087;84;21823;-59
2021/11/02 16:15:38;;;;;;;12.03;10.72;;;;;;;8.80;83.93;98880.53;1665773;84;21001;-59
2021/11/02 16:18:22;;;;;;;11.57;10.30;;;;;;;8.78;84.16;98877.13;1667946;84;20995;-59
2021/11/02 16:20:48;;;;;;;11.88;10.68;;;;;;;8.84;84.01;98872.91;1664703;84;21609;-59
2021/11/02 16:23:25;;;;;;;13.35;12.15;;;;;;;8.85;83.94;98866.72;1668360;84;21537;-58
2021/11/02 16:25:58;;;;;;;12.80;11.45;;;;;;;8.82;84.06;98869.98;1663494;85;22049;-59
2021/11/02 16:28:33;;;;;;;12.07;10.82;;;;;;;8.78;84.21;98867.96;1672217;84;21550;-59
2021/11/02 16:31:06;;;;;;;15.55;11.00;;;;;;;8.80;84.40;98880.53;1669282;84;21466;-60
2021/11/02 16:33:37;;;;;;;13.93;10.95;;;;;;;8.87;84.18;98875.39;1667730;84;21532;-60
2021/11/02 16:36:31;;;;;;;12.03;10.82;;;;;;;8.87;84.30;98883.25;1669908;84;21009;-59
2021/11/02 16:39:00;;;;;;;13.65;12.25;;;;;;;8.82;84.33;98882.61;1646587;84;21419;-58
2021/11/02 16:41:29;;;;;;;13.43;12.03;;;;;;;8.81;84.34;98889.23;1669784;84;21072;-59
2021/11/02 16:44:03;;;;;;;13.68;11.73;;;;;;;8.84;84.42;98882.08;1668817;84;21540;-59
2021/11/02 16:46:37;;;;;;;14.15;12.65;;;;;;;8.92;84.32;98879.09;1670451;84;21060;-58
2021/11/02 16:49:14;;;;;;;14.87;12.78;;;;;;;8.95;84.28;98878.48;1671985;84;21426;-59
2021/11/02 16:51:45;;;;;;;19.12;14.13;;;;;;;8.92;84.31;98873.37;1669747;84;21467;-59
2021/11/02 16:54:14;;;;;;;14.20;12.15;;;;;;;8.88;84.29;98871.83;1665307;84;20955;-60
2021/11/02 16:56:58;;;;;;;16.35;12.60;;;;;;;8.88;84.45;98869.67;1668450;84;21532;-60
2021/11/02 17:00:03;;;;;;;18.20;14.07;;;;;;;8.96;84.55;98874.91;1671900;84;21944;-59
2021/11/02 17:02:39;;;;;;;18.70;13.98;;;;;;;8.96;84.60;98872.77;1666721;84;20986;-61
2021/11/02 17:05:20;;;;;;;14.85;13.30;;;;;;;8.91;85.15;98870.38;1675515;84;22172;-60
2021/11/02 17:08:08;;;;;;;15.63;14.03;;;;;;;8.88;85.26;98868.36;1673451;84;21075;-60